Time;durP1;ratioP1;P1;durP2;ratioP2;P2;SDS_P1;SDS_P2;PMS_P1;PMS_P2;Temp;Humidity;BMP_temperature;BMP_pressure;BME280_temperature;BME280_humidity;BME280_pressure;Samples;Min_cycle;Max_cycle;Signal;HPM_P1;HPM_P2
2022/09/30 00:00:36;;;;;;;6.70;4.80;;;;;;;15.05;91.34;98849.17;104971;1278;24405;-67
2022/09/30 00:03:03;;;;;;;9.60;5.80;;;;;;;15.05;91.47;98842.48;105012;1278;25169;-67
2022/09/30 00:05:30;;;;;;;7.30;5.50;;;;;;;15.05;91.56;98843.80;109281;1276;23761;-68
2022/09/30 00:07:57;;;;;;;8.90;5.70;;;;;;;15.03;91.58;98844.27;109320;1277;22442;-68
2022/09/30 00:10:28;;;;;;;8.70;5.60;;;;;;;15.04;91.77;98839.77;109267;1276;22445;-68
2022/09/30 00:12:56;;;;;;;6.50;5.70;;;;;;;15.03;91.78;98832.42;109298;1277;22463;-68
2022/09/30 00:15:23;;;;;;;9.50;5.70;;;;;;;15.03;91.92;98842.40;109302;1276;22475;-68
2022/09/30 00:17:50;;;;;;;8.30;6.30;;;;;;;15.04;92.09;98842.56;109337;1276;23574;-68
2022/09/30 00:20:18;;;;;;;9.60;5.30;;;;;;;15.03;92.29;98845.75;109316;1276;23184;-68
2022/09/30 00:22:45;;;;;;;9.10;5.40;;;;;;;15.04;92.42;98843.32;109281;1277;22497;-68
2022/09/30 00:25:12;;;;;;;9.60;6.20;;;;;;;15.05;92.44;98845.29;109326;1276;22537;-66
2022/09/30 00:27:42;;;;;;;8.00;6.00;;;;;;;15.05;92.52;98842.86;109304;1276;22410;-66
2022/09/30 00:30:09;;;;;;;8.10;5.40;;;;;;;15.04;92.53;98843.86;109287;1277;22409;-66
2022/09/30 00:32:36;;;;;;;11.60;5.40;;;;;;;15.04;92.62;98846.50;109314;1276;22515;-66
2022/09/30 00:35:03;;;;;;;;;;;;;;;15.04;92.74;98849.13;109320;1276;22466;-66
2022/09/30 00:37:30;;;;;;;7.60;5.50;;;;;;;15.04;92.80;98854.30;109307;1276;22415;-66
2022/09/30 00:39:58;;;;;;;9.40;5.60;;;;;;;15.05;92.87;98859.39;107753;1276;22557;-65
2022/09/30 00:42:25;;;;;;;9.10;5.90;;;;;;;15.06;92.92;98867.05;105006;1276;23973;-65
2022/09/30 00:44:55;;;;;;;7.20;5.40;;;;;;;15.06;92.98;98868.97;109293;1276;23314;-66
2022/09/30 00:47:27;;;;;;;8.80;5.90;;;;;;;15.06;92.98;98872.27;109364;1276;22259;-66
2022/09/30 00:49:54;;;;;;;7.40;5.30;;;;;;;15.06;92.93;98876.27;109351;1276;22469;-66
2022/09/30 00:52:21;;;;;;;7.90;5.10;;;;;;;15.06;92.90;98876.48;109372;1276;22420;-66
2022/09/30 00:54:49;;;;;;;10.70;6.00;;;;;;;15.04;92.89;98876.46;109326;1276;23497;-67
2022/09/30 00:57:16;;;;;;;8.70;5.50;;;;;;;15.03;92.85;98874.40;108951;1277;23136;-67
2022/09/30 00:59:45;;;;;;;8.30;5.80;;;;;;;15.03;92.98;98876.92;109243;1276;22576;-67
2022/09/30 01:02:13;;;;;;;11.10;5.90;;;;;;;15.02;93.14;98872.06;109327;1276;22452;-68
2022/09/30 01:04:40;;;;;;;7.70;5.60;;;;;;;15.00;93.30;98866.83;109349;1276;23354;-68
2022/09/30 01:07:07;;;;;;;9.30;6.40;;;;;;;14.99;93.46;98864.34;109413;1276;22555;-68
2022/09/30 01:09:38;;;;;;;11.20;6.20;;;;;;;14.99;93.52;98865.56;109345;1276;22503;-68
2022/09/30 01:12:07;;;;;;;10.50;5.40;;;;;;;14.97;93.65;98869.27;109307;1276;22561;-68
2022/09/30 01:14:34;;;;;;;7.90;5.80;;;;;;;14.96;93.73;98869.33;109340;1276;22457;-68
2022/09/30 01:17:10;;;;;;;7.90;6.00;;;;;;;14.95;93.90;98873.63;109314;1276;22954;-68
2022/09/30 01:20:08;;;;;;;8.30;5.80;;;;;;;14.94;94.13;98871.73;109186;1277;22414;-68
2022/09/30 01:22:42;;;;;;;7.70;5.70;;;;;;;14.93;94.28;98878.27;109289;1275;22422;-69
2022/09/30 01:25:43;;;;;;;8.30;5.50;;;;;;;14.93;94.36;98877.34;109262;1276;23795;-69
2022/09/30 01:28:28;;;;;;;7.10;5.70;;;;;;;14.91;94.44;98877.96;109297;1276;22468;-68
2022/09/30 01:31:07;;;;;;;7.50;5.20;;;;;;;14.91;94.60;98884.61;109295;1276;22510;-68
2022/09/30 01:33:55;;;;;;;7.20;5.70;;;;;;;14.90;94.75;98886.11;109280;1276;22486;-68
2022/09/30 01:36:28;;;;;;;13.10;5.70;;;;;;;14.90;94.81;98888.69;109231;1276;22415;-68
2022/09/30 01:39:11;;;;;;;8.50;5.60;;;;;;;14.89;94.83;98887.12;109334;1276;22456;-68
2022/09/30 01:41:41;;;;;;;9.60;6.20;;;;;;;14.85;94.76;98892.91;109229;1276;22546;-67
2022/09/30 01:44:18;;;;;;;8.50;6.60;;;;;;;14.81;94.79;98890.65;109316;1276;22545;-67
2022/09/30 01:46:49;;;;;;;8.60;5.30;;;;;;;14.78;94.86;98892.85;109270;1276;22458;-68
2022/09/30 01:49:45;;;;;;;11.20;7.00;;;;;;;14.74;95.09;98896.80;109213;1276;22479;-68
2022/09/30 01:52:15;;;;;;;9.00;6.20;;;;;;;14.71;95.17;98897.20;109270;1275;22420;-69
2022/09/30 01:54:44;;;;;;;10.00;5.80;;;;;;;14.68;95.23;98892.33;109283;1276;23012;-68
2022/09/30 01:57:11;;;;;;;8.90;5.80;;;;;;;14.65;95.32;98891.38;109285;1276;22445;-69
2022/09/30 01:59:44;;;;;;;12.70;6.40;;;;;;;14.62;95.52;98891.20;109333;1276;23572;-69
2022/09/30 02:02:24;;;;;;;9.00;6.80;;;;;;;14.60;95.76;98893.10;109063;1276;23549;-69
2022/09/30 02:05:02;;;;;;;6.40;5.40;;;;;;;14.58;95.87;98893.52;109178;1276;23354;-69
2022/09/30 02:07:33;;;;;;;8.40;6.10;;;;;;;14.57;96.02;98886.32;109139;1276;22455;-69
2022/09/30 02:10:06;;;;;;;9.30;6.30;;;;;;;14.53;96.06;98886.64;109117;1276;22456;-69
2022/09/30 02:12:37;;;;;;;8.20;6.50;;;;;;;14.50;96.20;98887.73;109279;1276;22422;-69
2022/09/30 02:15:07;;;;;;;9.10;6.80;;;;;;;14.46;96.42;98883.89;108936;1276;22473;-68
2022/09/30 02:17:47;;;;;;;7.60;6.50;;;;;;;14.44;96.60;98890.23;109300;1276;22442;-68
2022/09/30 02:20:24;;;;;;;9.30;6.60;;;;;;;14.41;96.76;98897.69;109225;1276;23076;-67
2022/09/30 02:23:01;;;;;;;8.50;6.50;;;;;;;14.39;96.84;98898.95;109253;1276;23389;-67
2022/09/30 02:26:06;;;;;;;10.00;6.50;;;;;;;14.35;96.73;98896.98;109272;1276;22558;-68
2022/09/30 02:28:38;;;;;;;7.60;6.20;;;;;;;14.30;96.46;98899.63;108679;1282;22496;-68
2022/09/30 02:31:05;;;;;;;9.00;6.10;;;;;;;14.24;96.17;98901.92;108713;1281;22265;-68
2022/09/30 02:33:33;;;;;;;9.20;6.40;;;;;;;14.18;96.16;98897.67;108715;1281;22488;-68
2022/09/30 02:36:20;;;;;;;7.60;5.90;;;;;;;14.13;95.90;98897.64;108819;1281;22418;-66
2022/09/30 02:38:49;;;;;;;;;;;;;;;14.06;95.75;98898.77;108591;1281;22688;-66
2022/09/30 02:41:20;;;;;;;6.70;5.10;;;;;;;13.97;95.39;98902.97;108831;1281;22415;-67
2022/09/30 02:43:48;;;;;;;11.80;6.40;;;;;;;13.87;95.06;98903.20;108839;1279;22460;-68
2022/09/30 02:46:30;;;;;;;8.00;5.10;;;;;;;13.80;94.94;98902.55;108652;1281;22425;-67
2022/09/30 02:49:08;;;;;;;7.00;5.00;;;;;;;13.72;94.47;98901.98;108787;1281;23344;-68
2022/09/30 02:51:53;;;;;;;9.70;6.40;;;;;;;13.63;94.21;98898.72;108586;1281;23633;-67
2022/09/30 02:54:29;;;;;;;6.60;4.80;;;;;;;13.55;94.00;98897.50;108639;1281;22461;-68
2022/09/30 02:57:07;;;;;;;6.90;5.90;;;;;;;13.46;93.62;98898.52;108642;1282;22495;-68
2022/09/30 02:59:34;;;;;;;5.60;4.90;;;;;;;13.39;93.75;98898.52;108537;1282;22471;-68
2022/09/30 03:02:01;;;;;;;;;;;;;;;13.32;93.65;98904.93;108847;1281;22446;-68
2022/09/30 03:04:29;;;;;;;5.80;4.40;;;;;;;13.24;93.62;98910.13;108747;1276;23757;-68
2022/09/30 03:06:56;;;;;;;7.20;5.50;;;;;;;13.18;93.73;98907.28;109197;1276;22508;-68
2022/09/30 03:09:26;;;;;;;8.60;6.50;;;;;;;13.12;93.86;98906.45;109264;1276;23210;-68
2022/09/30 03:11:54;;;;;;;6.80;5.40;;;;;;;13.07;94.01;98907.27;109271;1276;22442;-68
2022/09/30 03:14:57;;;;;;;9.00;6.00;;;;;;;13.03;93.84;98910.02;109241;1276;22443;-68
2022/09/30 03:17:28;;;;;;;6.90;6.10;;;;;;;12.98;94.14;98914.41;109333;1276;22447;-69
2022/09/30 03:20:14;;;;;;;9.30;6.80;;;;;;;12.96;94.22;98917.05;109267;1276;22526;-68
2022/09/30 03:23:09;;;;;;;12.00;7.50;;;;;;;12.98;94.93;98917.25;109229;1276;23731;-69
2022/09/30 03:25:43;;;;;;;13.10;8.30;;;;;;;13.03;95.64;98918.73;109104;1276;23744;-70
2022/09/30 03:28:40;;;;;;;10.00;8.50;;;;;;;13.10;96.71;98918.94;109302;1276;22505;-69
2022/09/30 03:31:45;;;;;;;11.70;9.50;;;;;;;13.20;97.57;98927.45;109256;1276;22469;-70
2022/09/30 03:34:15;;;;;;;19.10;10.50;;;;;;;13.33;98.67;98925.02;108601;1282;23523;-67
2022/09/30 03:36:44;;;;;;;19.10;11.60;;;;;;;13.44;99.67;98924.78;108570;1282;22830;-67
2022/09/30 03:39:44;;;;;;;20.00;12.00;;;;;;;13.53;100.00;98926.81;108513;1284;22544;-67
2022/09/30 03:42:17;;;;;;;17.70;11.70;;;;;;;13.65;100.00;98933.30;108605;1283;22545;-67
2022/09/30 03:44:54;;;;;;;12.30;10.60;;;;;;;13.73;100.00;98932.70;108512;1282;22469;-67
2022/09/30 03:47:21;;;;;;;16.40;11.80;;;;;;;13.79;100.00;98929.45;108592;1283;22459;-67
2022/09/30 03:49:49;;;;;;;15.70;12.00;;;;;;;13.84;100.00;98931.46;108610;1282;22420;-67
2022/09/30 03:52:15;;;;;;;15.70;11.30;;;;;;;13.89;100.00;98934.58;108604;1282;22434;-66
2022/09/30 03:54:44;;;;;;;;;;;;;;;13.93;100.00;98938.63;108546;1283;22502;-67
2022/09/30 03:57:10;;;;;;;15.60;11.90;;;;;;;13.97;100.00;98938.86;108518;1283;23275;-67
2022/09/30 03:59:37;;;;;;;;;;;;;;;13.99;100.00;98938.94;108632;1282;22673;-68
2022/09/30 04:02:05;;;;;;;15.80;11.10;;;;;;;14.01;100.00;98943.98;108608;1283;23211;-67
2022/09/30 04:04:32;;;;;;;12.00;10.80;;;;;;;14.03;100.00;98951.41;108552;1283;22478;-67
2022/09/30 04:06:59;;;;;;;14.40;11.10;;;;;;;14.05;100.00;98956.38;108613;1282;22510;-67
2022/09/30 04:09:26;;;;;;;14.10;10.90;;;;;;;14.07;100.00;98963.25;108638;1282;22443;-67
2022/09/30 04:11:54;;;;;;;18.20;11.20;;;;;;;14.09;100.00;98968.16;109065;1276;22466;-68
2022/09/30 04:14:20;;;;;;;;;;;;;;;14.11;100.00;98975.27;109320;1276;23496;-68
2022/09/30 04:16:47;;;;;;;15.90;10.80;;;;;;;14.12;100.00;98975.04;109328;1276;22669;-67
2022/09/30 04:19:20;;;;;;;12.00;9.90;;;;;;;14.12;100.00;98975.80;109356;1274;22480;-67
2022/09/30 04:21:46;;;;;;;11.20;10.00;;;;;;;14.13;100.00;98976.62;109212;1276;23020;-67
2022/09/30 04:24:13;;;;;;;;;;;;;;;14.13;100.00;98980.16;109223;1276;22489;-67
2022/09/30 04:26:39;;;;;;;11.70;10.50;;;;;;;14.14;100.00;98984.03;109311;1276;23160;-67
2022/09/30 04:29:06;;;;;;;;;;;;;;;14.14;100.00;98982.98;109297;1276;22446;-67
2022/09/30 04:31:33;;;;;;;12.20;9.90;;;;;;;14.14;100.00;98978.86;109324;1276;23462;-67
2022/09/30 04:33:59;;;;;;;12.50;9.40;;;;;;;14.15;100.00;98981.72;109258;1276;22448;-67
2022/09/30 04:36:26;;;;;;;10.70;9.60;;;;;;;14.15;100.00;98978.54;109307;1276;22446;-66
2022/09/30 04:38:54;;;;;;;11.50;10.10;;;;;;;14.15;100.00;98979.46;109319;1276;23100;-67
2022/09/30 04:41:21;;;;;;;11.50;9.50;;;;;;;14.16;100.00;98983.61;109305;1276;22454;-67
2022/09/30 04:43:48;;;;;;;10.40;9.30;;;;;;;14.17;100.00;98984.21;109284;1276;22447;-67
2022/09/30 04:46:14;;;;;;;;;;;;;;;14.18;100.00;98982.61;109322;1276;22466;-67
2022/09/30 04:48:44;;;;;;;13.10;10.60;;;;;;;14.18;100.00;98979.43;109258;1276;22463;-67
2022/09/30 04:51:15;;;;;;;13.00;9.70;;;;;;;14.19;100.00;98985.02;109309;1275;22462;-67
2022/09/30 04:53:41;;;;;;;11.20;10.00;;;;;;;14.20;100.00;98994.86;109258;1275;23460;-66
2022/09/30 04:56:08;;;;;;;41.50;34.90;;;;;;;14.22;100.00;98999.39;109253;1276;22577;-65
2022/09/30 04:58:35;;;;;;;;;;;;;;;14.24;100.00;98998.66;109309;1275;22533;-65
2022/09/30 05:01:04;;;;;;;18.20;13.50;;;;;;;14.25;100.00;98999.40;109286;1276;22455;-65
2022/09/30 05:03:31;;;;;;;28.70;22.30;;;;;;;14.27;100.00;99001.95;109332;1276;23203;-66
2022/09/30 05:05:58;;;;;;;18.40;16.40;;;;;;;14.29;100.00;99006.30;109302;1275;23198;-66
2022/09/30 05:08:26;;;;;;;11.90;10.60;;;;;;;14.31;100.00;99003.70;108558;1276;974509;-65
2022/09/30 05:12:47;;;;;;;12.10;10.90;;;;;;;14.34;100.00;99003.55;101813;1309;545032;-65
2022/09/30 05:15:14;;;;;;;13.30;11.20;;;;;;;14.33;100.00;99008.59;104125;1286;22561;-65
2022/09/30 05:17:41;;;;;;;13.10;11.70;;;;;;;14.36;100.00;99008.35;104092;1286;25404;-65
2022/09/30 05:20:09;;;;;;;14.60;11.50;;;;;;;14.37;100.00;99005.48;103889;1286;24058;-65
2022/09/30 05:22:37;;;;;;;13.20;11.80;;;;;;;14.39;100.00;99009.58;108164;1286;23146;-66
2022/09/30 05:25:04;;;;;;;13.40;12.00;;;;;;;14.40;100.00;99011.77;105731;1286;22576;-66
2022/09/30 05:27:31;;;;;;;16.10;11.50;;;;;;;14.41;100.00;99015.77;103566;1284;869595;-68
2022/09/30 05:29:57;;;;;;;13.60;12.00;;;;;;;14.41;100.00;99021.14;104229;1283;23194;-64
2022/09/30 05:32:24;;;;;;;15.50;13.30;;;;;;;14.42;100.00;99028.30;105131;1273;23186;-65
2022/09/30 05:34:53;;;;;;;14.90;13.40;;;;;;;14.43;100.00;99032.33;105091;1273;22706;-66
2022/09/30 05:37:20;;;;;;;15.60;13.10;;;;;;;14.45;100.00;99037.07;109543;1273;22480;-67
2022/09/30 05:39:47;;;;;;;13.60;12.20;;;;;;;14.47;100.00;99037.66;109535;1273;23335;-67
2022/09/30 05:42:14;;;;;;;14.50;13.00;;;;;;;14.48;100.00;99037.47;109647;1270;23580;-67
2022/09/30 05:44:40;;;;;;;16.20;14.20;;;;;;;14.51;100.00;99040.35;109593;1272;22553;-68
2022/09/30 05:47:10;;;;;;;15.10;13.60;;;;;;;14.53;100.00;99046.20;109460;1273;23469;-67
2022/09/30 05:49:38;;;;;;;16.10;12.90;;;;;;;14.55;100.00;99050.89;109544;1271;23339;-67
2022/09/30 05:52:05;;;;;;;16.20;12.90;;;;;;;14.57;100.00;99052.77;109591;1270;22447;-68
2022/09/30 05:54:31;;;;;;;13.30;11.90;;;;;;;14.59;100.00;99051.80;109592;1271;23347;-68
2022/09/30 05:56:59;;;;;;;15.80;12.80;;;;;;;14.60;100.00;99053.43;109648;1272;23279;-67
2022/09/30 05:59:26;;;;;;;25.40;20.90;;;;;;;14.62;100.00;99050.11;109516;1274;23370;-68
2022/09/30 06:01:53;;;;;;;14.80;13.30;;;;;;;14.62;100.00;99054.77;109506;1273;22424;-68
2022/09/30 06:04:21;;;;;;;19.80;13.30;;;;;;;14.65;100.00;99052.66;109657;1271;22283;-67
2022/09/30 06:06:48;;;;;;;17.10;14.00;;;;;;;14.67;100.00;99060.96;109669;1271;22459;-68
2022/09/30 06:09:15;;;;;;;15.90;14.00;;;;;;;14.70;100.00;99064.11;109621;1271;22417;-68
2022/09/30 06:11:42;;;;;;;17.10;14.10;;;;;;;14.73;100.00;99068.59;109509;1273;22444;-68
2022/09/30 06:14:09;;;;;;;15.90;13.60;;;;;;;14.74;100.00;99071.75;109473;1274;22459;-68
2022/09/30 06:16:35;;;;;;;16.30;14.50;;;;;;;14.76;100.00;99075.46;109509;1273;23171;-67
2022/09/30 06:19:02;;;;;;;16.40;14.40;;;;;;;14.77;100.00;99074.14;109520;1272;22400;-67
2022/09/30 06:21:29;;;;;;;16.20;14.40;;;;;;;14.79;100.00;99074.94;109624;1272;22413;-67
2022/09/30 06:23:56;;;;;;;14.90;13.30;;;;;;;14.81;100.00;99071.63;109545;1274;22486;-67
2022/09/30 06:26:23;;;;;;;17.00;15.20;;;;;;;14.84;100.00;99071.14;109495;1274;22348;-69
2022/09/30 06:28:50;;;;;;;16.30;14.50;;;;;;;14.88;100.00;99076.83;109510;1273;22505;-67
2022/09/30 06:31:17;;;;;;;16.40;14.70;;;;;;;14.90;100.00;99074.38;109584;1272;22416;-68
2022/09/30 06:33:45;;;;;;;18.40;16.00;;;;;;;14.93;100.00;99075.27;109523;1273;22445;-68
2022/09/30 06:36:12;;;;;;;19.80;17.10;;;;;;;14.96;100.00;99076.71;109523;1272;22537;-68
2022/09/30 06:38:39;;;;;;;24.00;18.10;;;;;;;15.00;100.00;99081.48;109511;1273;24178;-67
2022/09/30 06:41:06;;;;;;;20.40;16.80;;;;;;;15.03;100.00;99089.00;109498;1274;22579;-67
2022/09/30 06:43:33;;;;;;;22.70;17.50;;;;;;;15.07;100.00;99084.94;109493;1273;22474;-67
2022/09/30 06:46:11;;;;;;;19.60;16.60;;;;;;;15.11;100.00;99083.35;109492;1273;22994;-67
2022/09/30 06:48:45;;;;;;;22.80;18.40;;;;;;;15.13;100.00;99080.52;109468;1273;23500;-67
2022/09/30 06:51:12;;;;;;;22.10;18.40;;;;;;;15.15;100.00;99084.92;109499;1274;23745;-67
2022/09/30 06:53:39;;;;;;;20.40;18.20;;;;;;;15.16;100.00;99087.04;109518;1273;22466;-68
2022/09/30 06:56:06;;;;;;;21.70;18.10;;;;;;;15.20;100.00;99090.27;109528;1274;22505;-68
2022/09/30 06:58:32;;;;;;;23.00;18.10;;;;;;;15.25;100.00;99090.59;109572;1273;22599;-68
2022/09/30 07:01:01;;;;;;;21.00;18.20;;;;;;;15.29;100.00;99092.88;109500;1274;23121;-67
2022/09/30 07:03:31;;;;;;;23.10;19.20;;;;;;;15.33;100.00;99097.25;109527;1273;23165;-67
2022/09/30 07:05:58;;;;;;;40.60;30.50;;;;;;;15.35;100.00;99092.45;109505;1272;22267;-68
2022/09/30 07:08:30;;;;;;;65.60;51.90;;;;;;;15.37;100.00;99099.67;109507;1274;23527;-67
2022/09/30 07:10:58;;;;;;;30.40;21.10;;;;;;;15.39;100.00;99102.66;109478;1273;22809;-68
2022/09/30 07:13:24;;;;;;;25.40;19.10;;;;;;;15.43;100.00;99108.85;109486;1274;22466;-68
2022/09/30 07:15:53;;;;;;;21.70;17.90;;;;;;;15.47;100.00;99110.64;109484;1273;23261;-68
2022/09/30 07:18:20;;;;;;;25.20;19.90;;;;;;;15.49;100.00;99114.56;109521;1273;23133;-68
2022/09/30 07:20:50;;;;;;;21.20;18.20;;;;;;;15.53;100.00;99113.30;109508;1273;22477;-68
2022/09/30 07:23:17;;;;;;;20.90;17.70;;;;;;;15.56;100.00;99109.10;109526;1274;22428;-68
2022/09/30 07:25:53;;;;;;;22.20;17.90;;;;;;;15.59;100.00;99110.46;109494;1274;23488;-68
2022/09/30 07:28:19;;;;;;;20.10;17.00;;;;;;;15.62;100.00;99116.58;109503;1274;23117;-68
2022/09/30 07:30:46;;;;;;;20.40;17.10;;;;;;;15.67;100.00;99124.02;109506;1274;23492;-68
2022/09/30 07:33:15;;;;;;;21.00;17.40;;;;;;;15.72;100.00;99121.36;109498;1273;22419;-68
2022/09/30 07:35:52;;;;;;;23.10;18.90;;;;;;;15.76;100.00;99123.02;109543;1274;22481;-68
2022/09/30 07:38:19;;;;;;;25.30;19.40;;;;;;;15.81;100.00;99127.95;109518;1272;22328;-68
2022/09/30 07:40:58;;;;;;;22.20;18.70;;;;;;;15.84;100.00;99127.45;109420;1273;22495;-68
2022/09/30 07:43:30;;;;;;;209.80;166.80;;;;;;;15.88;100.00;99132.30;109551;1272;22420;-67
2022/09/30 07:45:56;;;;;;;58.30;46.30;;;;;;;15.92;100.00;99131.36;109531;1273;22513;-66
2022/09/30 07:48:42;;;;;;;91.80;68.60;;;;;;;15.97;100.00;99131.62;109507;1274;23231;-69
2022/09/30 07:51:21;;;;;;;54.80;41.10;;;;;;;16.00;100.00;99134.35;109438;1273;22568;-69
2022/09/30 07:53:52;;;;;;;25.50;21.20;;;;;;;16.03;100.00;99137.04;109365;1272;23265;-68
2022/09/30 07:56:19;;;;;;;27.20;19.50;;;;;;;16.05;100.00;99138.48;109440;1273;24621;-68
2022/09/30 07:58:46;;;;;;;24.80;19.10;;;;;;;16.08;100.00;99144.64;109476;1274;22571;-68
2022/09/30 08:01:13;;;;;;;24.50;19.30;;;;;;;16.12;100.00;99144.80;109479;1274;22543;-67
2022/09/30 08:03:43;;;;;;;25.80;20.40;;;;;;;16.17;100.00;99152.33;109437;1274;22473;-68
2022/09/30 08:06:15;;;;;;;24.50;19.70;;;;;;;16.22;100.00;99156.53;109437;1272;22426;-66
2022/09/30 08:08:43;;;;;;;25.00;20.20;;;;;;;16.27;100.00;99155.89;109497;1273;23136;-66
2022/09/30 08:11:10;;;;;;;23.00;20.30;;;;;;;16.31;100.00;99158.94;109577;1271;22471;-66
2022/09/30 08:13:37;;;;;;;24.80;20.50;;;;;;;16.35;100.00;99161.73;109627;1271;23269;-68
2022/09/30 08:16:04;;;;;;;22.80;20.00;;;;;;;16.39;99.99;99157.88;109560;1273;22463;-68
2022/09/30 08:18:31;;;;;;;19.90;17.80;;;;;;;16.43;99.94;99160.58;109585;1273;22456;-68
2022/09/30 08:21:03;;;;;;;22.00;18.40;;;;;;;16.47;99.87;99160.26;109576;1272;22484;-68
2022/09/30 08:23:30;;;;;;;20.50;18.30;;;;;;;16.52;99.65;99160.79;109521;1274;22414;-69
2022/09/30 08:26:04;;;;;;;20.30;17.60;;;;;;;16.54;99.00;99165.70;109520;1273;22447;-69
2022/09/30 08:28:30;;;;;;;21.90;17.50;;;;;;;16.56;98.79;99168.24;109524;1272;22433;-69
2022/09/30 08:31:07;;;;;;;20.80;17.80;;;;;;;16.60;98.57;99166.66;109623;1274;23112;-69
2022/09/30 08:33:34;;;;;;;19.60;17.60;;;;;;;16.65;98.36;99167.16;109648;1273;22573;-70
2022/09/30 08:36:05;;;;;;;37.80;31.90;;;;;;;16.70;98.36;99171.90;109494;1272;22322;-68
2022/09/30 08:38:32;;;;;;;29.80;25.90;;;;;;;16.75;98.18;99170.19;109498;1274;22451;-69
2022/09/30 08:41:18;;;;;;;20.40;18.00;;;;;;;16.79;97.95;99172.91;106116;1274;26137;-68
2022/09/30 08:44:43;;;;;;;20.90;17.40;;;;;;;16.84;97.63;99174.90;105207;1274;22655;-67
2022/09/30 08:47:27;;;;;;;22.30;17.00;;;;;;;16.93;97.55;99180.65;104690;1280;22773;-66
2022/09/30 08:50:15;;;;;;;19.00;16.80;;;;;;;16.99;97.01;99175.95;104612;1280;25355;-69
2022/09/30 08:52:44;;;;;;;22.00;18.50;;;;;;;17.04;96.48;99178.59;108955;1280;22525;-67
2022/09/30 08:55:21;;;;;;;22.90;18.70;;;;;;;17.09;96.27;99177.16;108657;1281;22550;-69
2022/09/30 08:57:47;;;;;;;22.00;18.00;;;;;;;17.13;95.59;99174.94;108731;1281;22548;-68
2022/09/30 09:00:15;;;;;;;24.30;17.00;;;;;;;17.19;95.58;99179.02;108978;1280;22480;-67
2022/09/30 09:02:49;;;;;;;21.80;17.20;;;;;;;17.25;95.29;99182.20;108741;1280;22500;-67
2022/09/30 09:05:24;;;;;;;22.90;17.70;;;;;;;17.31;94.82;99181.73;109022;1280;22510;-68
2022/09/30 09:07:56;;;;;;;21.20;17.10;;;;;;;17.37;94.60;99184.79;108895;1280;22516;-66
2022/09/30 09:10:29;;;;;;;22.60;17.40;;;;;;;17.39;93.88;99185.17;109007;1280;22589;-66
2022/09/30 09:13:22;;;;;;;25.90;17.10;;;;;;;17.41;93.41;99185.20;108972;1280;22468;-66
2022/09/30 09:15:55;;;;;;;21.40;17.90;;;;;;;17.44;93.25;99184.15;105472;1280;22678;-67
2022/09/30 09:18:37;;;;;;;24.30;18.90;;;;;;;17.49;93.37;99186.88;104930;1273;24421;-66
2022/09/30 09:21:16;;;;;;;25.10;17.80;;;;;;;17.58;93.85;99194.77;109496;1274;22359;-66
2022/09/30 09:23:43;;;;;;;23.10;19.80;;;;;;;17.66;93.53;99193.32;109503;1274;22426;-67
2022/09/30 09:26:11;;;;;;;26.70;20.30;;;;;;;17.73;93.18;99193.48;109524;1274;23686;-67
2022/09/30 09:28:51;;;;;;;21.60;17.60;;;;;;;17.82;92.92;99196.64;109326;1271;22404;-67
2022/09/30 09:31:19;;;;;;;27.70;18.40;;;;;;;17.90;92.70;99196.55;109486;1274;23608;-68
2022/09/30 09:33:46;;;;;;;191.80;147.50;;;;;;;17.97;92.48;99200.71;109401;1274;22404;-65
2022/09/30 09:36:48;;;;;;;84.50;65.10;;;;;;;18.06;92.46;99198.11;109581;1273;22559;-67
2022/09/30 09:39:27;;;;;;;29.30;21.50;;;;;;;18.18;91.81;99198.70;109397;1272;23698;-68
2022/09/30 09:42:06;;;;;;;24.60;18.70;;;;;;;18.23;90.86;99201.91;109512;1272;23521;-69
2022/09/30 09:44:38;;;;;;;56.00;44.40;;;;;;;18.28;90.29;99197.65;109519;1271;23654;-71
2022/09/30 09:47:14;;;;;;;27.90;21.10;;;;;;;18.33;89.97;99196.02;109424;1274;23473;-69
2022/09/30 09:49:44;;;;;;;25.40;18.90;;;;;;;18.38;89.30;99196.21;109607;1273;22460;-69
2022/09/30 09:52:11;;;;;;;18.20;15.70;;;;;;;18.44;88.71;99201.91;109569;1271;22560;-69
2022/09/30 09:54:45;;;;;;;27.90;17.20;;;;;;;18.50;88.33;99199.75;109510;1273;22461;-69
2022/09/30 09:57:24;;;;;;;22.20;16.50;;;;;;;18.54;87.53;99196.93;109650;1271;22526;-68
2022/09/30 10:01:09;;;;;;;21.90;17.60;;;;;;;18.58;86.95;99196.36;109563;1273;22207;-68
2022/09/30 10:03:07;;;;;;;28.20;16.80;;;;;;;18.62;86.48;99192.53;109587;1271;22459;-67
2022/09/30 10:05:39;;;;;;;22.80;16.90;;;;;;;18.65;86.12;99190.57;109501;1274;22597;-68
2022/09/30 10:08:21;;;;;;;24.40;16.90;;;;;;;18.69;86.03;99192.60;109571;1273;22562;-69
2022/09/30 10:10:50;;;;;;;24.00;18.10;;;;;;;18.74;85.97;99197.69;109571;1274;22473;-68
2022/09/30 10:13:28;;;;;;;24.10;17.60;;;;;;;18.78;85.70;99200.02;109580;1271;22533;-68
2022/09/30 10:15:56;;;;;;;19.70;17.40;;;;;;;18.83;85.37;99194.59;109515;1274;22455;-68
2022/09/30 10:18:34;;;;;;;28.30;19.00;;;;;;;18.88;85.25;99194.04;109505;1274;23268;-69
2022/09/30 10:21:05;;;;;;;27.00;18.10;;;;;;;18.92;84.58;99195.27;109510;1274;22480;-69
2022/09/30 10:23:37;;;;;;;21.30;16.10;;;;;;;18.97;84.36;99199.70;109595;1272;22518;-69
2022/09/30 10:26:13;;;;;;;25.10;16.90;;;;;;;19.01;84.15;99201.31;109555;1274;22442;-69
2022/09/30 10:28:48;;;;;;;24.30;19.10;;;;;;;19.06;84.06;99203.58;109476;1274;22574;-69
2022/09/30 10:31:36;;;;;;;22.40;17.30;;;;;;;19.10;83.53;99204.50;109511;1273;22425;-69
2022/09/30 10:34:12;;;;;;;28.80;21.10;;;;;;;19.14;83.32;99207.11;109549;1273;22470;-69
2022/09/30 10:36:40;;;;;;;25.10;18.70;;;;;;;19.16;82.91;99208.42;109619;1270;23578;-69
2022/09/30 10:39:24;;;;;;;22.60;15.50;;;;;;;19.18;82.83;99205.52;109488;1274;22334;-64
2022/09/30 10:41:51;;;;;;;18.20;15.00;;;;;;;19.19;82.74;99202.95;105253;1271;22894;-69
2022/09/30 10:44:20;;;;;;;20.40;15.50;;;;;;;19.21;82.74;99203.02;105057;1274;25647;-68
2022/09/30 10:46:48;;;;;;;20.70;14.60;;;;;;;19.23;82.40;99203.35;105163;1275;24352;-68
2022/09/30 10:49:36;;;;;;;24.10;15.60;;;;;;;19.23;81.99;99203.45;105121;1274;22559;-66
2022/09/30 10:52:03;;;;;;;23.30;16.00;;;;;;;19.26;82.19;99210.45;109407;1273;22542;-69
2022/09/30 10:54:38;;;;;;;20.60;16.10;;;;;;;19.27;82.24;99206.64;109473;1271;22425;-67
2022/09/30 10:57:31;;;;;;;20.90;16.80;;;;;;;19.30;81.96;99209.39;109460;1274;23286;-67
2022/09/30 11:00:02;;;;;;;57.30;41.50;;;;;;;19.33;81.97;99207.40;109488;1274;22540;-70
2022/09/30 11:02:37;;;;;;;270.20;191.40;;;;;;;19.36;82.06;99205.96;109471;1274;23191;-71
2022/09/30 11:05:23;;;;;;;31.40;22.10;;;;;;;19.40;81.85;99208.44;109324;1274;22450;-70
2022/09/30 11:08:01;;;;;;;21.50;13.40;;;;;;;19.45;81.26;99210.09;109527;1271;22401;-70
2022/09/30 11:10:48;;;;;;;16.80;12.60;;;;;;;19.48;80.58;99208.95;109518;1272;23698;-69
2022/09/30 11:13:23;;;;;;;22.10;14.60;;;;;;;19.52;80.40;99215.02;109434;1273;22454;-69
2022/09/30 11:16:02;;;;;;;17.60;14.40;;;;;;;19.56;80.59;99218.86;109499;1274;22527;-69
2022/09/30 11:18:51;;;;;;;23.60;14.60;;;;;;;19.60;80.83;99218.09;109583;1272;22561;-69
2022/09/30 11:21:28;;;;;;;15.70;12.70;;;;;;;19.64;80.91;99220.54;109490;1272;22436;-70
2022/09/30 11:24:01;;;;;;;16.80;11.90;;;;;;;19.69;80.82;99225.20;109470;1271;22466;-70
2022/09/30 11:26:43;;;;;;;14.00;10.00;;;;;;;19.75;80.33;99226.38;109540;1273;23138;-69
2022/09/30 11:29:37;;;;;;;13.40;10.10;;;;;;;19.82;79.79;99229.25;109539;1273;23248;-70
2022/09/30 11:32:23;;;;;;;13.50;10.40;;;;;;;19.88;79.17;99228.23;109469;1274;22454;-71
2022/09/30 11:35:10;;;;;;;13.50;10.50;;;;;;;19.93;78.60;99233.37;109509;1273;22488;-70
2022/09/30 11:37:56;;;;;;;;;;;;;;;19.95;78.15;99239.23;109430;1273;22512;-69
2022/09/30 11:40:44;;;;;;;16.70;11.20;;;;;;;19.95;77.64;99241.48;109538;1271;22485;-69